sensor_id;sensor_type;location;lat;lon;timestamp;pressure;altitude;pressure_sealevel;temperature;humidity
36304;BME280;22335;49.800;8.596;2024-03-23T00:52:24;99617.41;;;15.95;52.16
36304;BME280;22335;49.800;8.596;2024-03-23T00:59:07;99609.69;;;16.01;52.06
36304;BME280;22335;49.800;8.596;2024-03-23T01:05:49;99602.00;;;15.94;52.10
36304;BME280;22335;49.800;8.596;2024-03-23T01:12:34;99589.69;;;15.91;52.17
36304;BME280;22335;49.800;8.596;2024-03-23T01:19:17;99583.72;;;15.89;52.29
36304;BME280;22335;49.800;8.596;2024-03-23T01:25:59;99592.66;;;15.74;52.38
36304;BME280;22335;49.800;8.596;2024-03-23T01:32:44;99591.38;;;15.51;53.01
36304;BME280;22335;49.800;8.596;2024-03-23T01:39:27;99565.94;;;15.33;52.72
36304;BME280;22335;49.800;8.596;2024-03-23T01:46:09;99574.78;;;15.38;53.04
36304;BME280;22335;49.800;8.596;2024-03-23T01:52:54;99574.97;;;15.21;53.04
36304;BME280;22335;49.800;8.596;2024-03-23T01:59:37;99580.00;;;15.19;52.98
36304;BME280;22335;49.800;8.596;2024-03-23T02:06:20;99564.50;;;15.14;53.13
36304;BME280;22335;49.800;8.596;2024-03-23T02:13:05;99568.97;;;15.19;53.15
36304;BME280;22335;49.800;8.596;2024-03-23T02:19:47;99476.28;;;14.69;53.23
36304;BME280;22335;49.800;8.596;2024-03-23T02:26:31;99543.88;;;15.33;53.32
36304;BME280;22335;49.800;8.596;2024-03-23T02:33:14;99533.94;;;15.40;53.25
36304;BME280;22335;49.800;8.596;2024-03-23T02:39:57;99525.59;;;15.16;53.71
36304;BME280;22335;49.800;8.596;2024-03-23T02:46:40;99508.63;;;14.72;54.46
36304;BME280;22335;49.800;8.596;2024-03-23T02:53:23;99523.00;;;14.78;54.61
36304;BME280;22335;49.800;8.596;2024-03-23T03:00:07;99507.28;;;14.48;54.99
36304;BME280;22335;49.800;8.596;2024-03-23T03:06:52;99508.59;;;14.51;55.15
36304;BME280;22335;49.800;8.596;2024-03-23T03:13:35;99500.34;;;14.51;55.37
36304;BME280;22335;49.800;8.596;2024-03-23T03:20:17;99484.75;;;14.34;55.98
36304;BME280;22335;49.800;8.596;2024-03-23T03:27:01;99464.75;;;14.25;55.95
36304;BME280;22335;49.800;8.596;2024-03-23T03:33:45;99480.94;;;14.18;56.69
36304;BME280;22335;49.800;8.596;2024-03-23T03:40:28;99477.31;;;14.35;56.54
36304;BME280;22335;49.800;8.596;2024-03-23T04:02:14;99480.31;;;14.71;56.31
36304;BME280;22335;49.800;8.596;2024-03-23T04:08:56;99464.72;;;14.75;56.68
36304;BME280;22335;49.800;8.596;2024-03-23T04:15:39;99431.56;;;14.51;56.83
36304;BME280;22335;49.800;8.596;2024-03-23T04:22:23;99471.88;;;14.89;56.61
36304;BME280;22335;49.800;8.596;2024-03-23T04:29:07;99462.63;;;14.93;56.65
36304;BME280;22335;49.800;8.596;2024-03-23T04:35:49;99458.00;;;14.85;56.52
36304;BME280;22335;49.800;8.596;2024-03-23T04:42:33;99521.03;;;14.78;56.69
36304;BME280;22335;49.800;8.596;2024-03-23T04:49:16;99545.75;;;13.98;57.49
36304;BME280;22335;49.800;8.596;2024-03-23T04:55:58;99562.06;;;13.47;57.91
36304;BME280;22335;49.800;8.596;2024-03-23T05:02:43;99584.03;;;13.21;58.25
36304;BME280;22335;49.800;8.596;2024-03-23T05:09:26;99602.44;;;13.03;58.34
36304;BME280;22335;49.800;8.596;2024-03-23T05:16:10;99596.13;;;12.94;57.92
36304;BME280;22335;49.800;8.596;2024-03-23T05:22:54;99654.41;;;12.91;57.95
36304;BME280;22335;49.800;8.596;2024-03-23T05:29:37;99670.22;;;12.94;58.13
36304;BME280;22335;49.800;8.596;2024-03-23T05:36:19;99693.84;;;13.04;58.18
36304;BME280;22335;49.800;8.596;2024-03-23T05:43:04;99685.75;;;12.99;57.80
36304;BME280;22335;49.800;8.596;2024-03-23T05:49:46;99683.94;;;12.85;57.71
36304;BME280;22335;49.800;8.596;2024-03-23T05:56:29;99714.09;;;12.77;57.78
36304;BME280;22335;49.800;8.596;2024-03-23T06:03:13;99721.06;;;12.43;58.13
36304;BME280;22335;49.800;8.596;2024-03-23T06:09:55;99728.19;;;12.21;57.93
36304;BME280;22335;49.800;8.596;2024-03-23T06:16:38;99719.22;;;12.07;58.09
36304;BME280;22335;49.800;8.596;2024-03-23T06:23:22;99738.84;;;12.00;57.70
36304;BME280;22335;49.800;8.596;2024-03-23T06:30:06;99763.88;;;11.85;57.73
36304;BME280;22335;49.800;8.596;2024-03-23T06:36:49;99793.16;;;11.62;57.60
36304;BME280;22335;49.800;8.596;2024-03-23T06:43:32;99825.41;;;11.51;57.62
36304;BME280;22335;49.800;8.596;2024-03-23T06:50:15;99852.50;;;11.53;57.14
36304;BME280;22335;49.800;8.596;2024-03-23T06:56:58;99854.97;;;11.41;57.29
36304;BME280;22335;49.800;8.596;2024-03-23T07:03:42;99870.88;;;11.39;57.00
36304;BME280;22335;49.800;8.596;2024-03-23T07:10:24;99877.34;;;11.29;56.92
36304;BME280;22335;49.800;8.596;2024-03-23T07:17:07;99916.94;;;11.37;56.89
36304;BME280;22335;49.800;8.596;2024-03-23T07:23:51;99916.69;;;11.33;56.87
36304;BME280;22335;49.800;8.596;2024-03-23T07:30:33;99955.25;;;11.37;56.53
36304;BME280;22335;49.800;8.596;2024-03-23T07:37:16;99965.28;;;11.41;56.54
36304;BME280;22335;49.800;8.596;2024-03-23T07:44:00;99979.19;;;11.45;56.56
36304;BME280;22335;49.800;8.596;2024-03-23T07:50:42;99993.16;;;11.29;56.36
36304;BME280;22335;49.800;8.596;2024-03-23T07:57:25;100003.47;;;11.19;56.53
36304;BME280;22335;49.800;8.596;2024-03-23T08:04:09;100020.72;;;11.19;56.29
36304;BME280;22335;49.800;8.596;2024-03-23T08:10:52;100038.69;;;11.25;56.21
36304;BME280;22335;49.800;8.596;2024-03-23T08:17:34;100057.16;;;11.34;55.84
36304;BME280;22335;49.800;8.596;2024-03-23T08:24:18;100060.41;;;11.36;55.87
36304;BME280;22335;49.800;8.596;2024-03-23T08:31:03;100064.38;;;11.43;55.60
36304;BME280;22335;49.800;8.596;2024-03-23T08:37:47;100059.78;;;11.71;55.19
36304;BME280;22335;49.800;8.596;2024-03-23T08:44:31;100069.41;;;11.69;55.21
36304;BME280;22335;49.800;8.596;2024-03-23T08:51:15;100076.22;;;11.71;54.55
36304;BME280;22335;49.800;8.596;2024-03-23T08:57:58;100074.91;;;11.83;54.19
36304;BME280;22335;49.800;8.596;2024-03-23T09:04:44;100069.28;;;11.93;54.07
36304;BME280;22335;49.800;8.596;2024-03-23T09:11:26;100078.13;;;12.17;53.93
36304;BME280;22335;49.800;8.596;2024-03-23T09:18:09;100092.94;;;12.44;53.65
36304;BME280;22335;49.800;8.596;2024-03-23T09:24:53;100093.75;;;12.58;52.90
36304;BME280;22335;49.800;8.596;2024-03-23T09:31:35;100088.34;;;12.53;52.80
36304;BME280;22335;49.800;8.596;2024-03-23T09:38:19;100079.28;;;12.66;52.38
36304;BME280;22335;49.800;8.596;2024-03-23T09:45:05;100082.09;;;12.89;52.22
36304;BME280;22335;49.800;8.596;2024-03-23T09:51:49;100076.56;;;13.03;51.95
36304;BME280;22335;49.800;8.596;2024-03-23T09:58:32;100079.81;;;13.05;51.71
36304;BME280;22335;49.800;8.596;2024-03-23T10:05:22;100066.91;;;13.28;51.74
36304;BME280;22335;49.800;8.596;2024-03-23T10:12:09;100069.25;;;13.88;51.02
36304;BME280;22335;49.800;8.596;2024-03-23T10:18:53;100065.00;;;14.22;49.86
36304;BME280;22335;49.800;8.596;2024-03-23T10:25:37;100066.59;;;14.14;49.16
36304;BME280;22335;49.800;8.596;2024-03-23T10:32:19;100067.84;;;14.08;49.07
36304;BME280;22335;49.800;8.596;2024-03-23T10:39:02;100064.28;;;14.07;48.46
36304;BME280;22335;49.800;8.596;2024-03-23T10:45:46;100054.56;;;14.01;48.31
36304;BME280;22335;49.800;8.596;2024-03-23T10:52:30;100070.75;;;14.03;48.10
36304;BME280;22335;49.800;8.596;2024-03-23T10:59:14;100116.59;;;13.63;47.62
36304;BME280;22335;49.800;8.596;2024-03-23T11:05:59;100140.50;;;12.67;48.62
36304;BME280;22335;49.800;8.596;2024-03-23T11:12:41;100094.66;;;11.33;49.13
36304;BME280;22335;49.800;8.596;2024-03-23T11:19:33;100155.94;;;11.37;50.24
36304;BME280;22335;49.800;8.596;2024-03-23T11:26:19;100151.88;;;11.35;50.05
36304;BME280;22335;49.800;8.596;2024-03-23T11:33:02;100145.38;;;11.30;50.39
36304;BME280;22335;49.800;8.596;2024-03-23T11:39:45;100116.03;;;11.50;50.46
36304;BME280;22335;49.800;8.596;2024-03-23T11:46:31;100092.41;;;11.54;50.34
36304;BME280;22335;49.800;8.596;2024-03-23T11:53:15;100083.69;;;11.85;50.22
36304;BME280;22335;49.800;8.596;2024-03-23T11:59:58;100069.97;;;12.26;49.51
36304;BME280;22335;49.800;8.596;2024-03-23T12:06:42;100040.25;;;12.69;49.35
36304;BME280;22335;49.800;8.596;2024-03-23T12:13:24;100031.19;;;13.05;48.73
36304;BME280;22335;49.800;8.596;2024-03-23T12:20:08;100021.53;;;13.30;49.34
36304;BME280;22335;49.800;8.596;2024-03-23T12:26:52;100025.28;;;13.34;49.09
36304;BME280;22335;49.800;8.596;2024-03-23T12:33:34;100024.31;;;12.94;49.42
36304;BME280;22335;49.800;8.596;2024-03-23T12:40:17;99998.25;;;12.46;49.96
36304;BME280;22335;49.800;8.596;2024-03-23T12:47:01;100017.97;;;12.49;50.03
36304;BME280;22335;49.800;8.596;2024-03-23T12:53:44;100030.59;;;12.36;50.44
36304;BME280;22335;49.800;8.596;2024-03-23T13:00:26;100030.94;;;12.57;50.96
36304;BME280;22335;49.800;8.596;2024-03-23T13:07:11;100030.25;;;12.51;51.04
36304;BME280;22335;49.800;8.596;2024-03-23T13:13:53;100034.34;;;12.40;51.75
36304;BME280;22335;49.800;8.596;2024-03-23T13:20:36;100078.44;;;12.16;51.48
36304;BME280;22335;49.800;8.596;2024-03-23T13:27:20;100068.84;;;11.86;51.98
36304;BME280;22335;49.800;8.596;2024-03-23T13:34:02;100070.22;;;12.02;51.98
36304;BME280;22335;49.800;8.596;2024-03-23T13:40:52;100069.28;;;12.34;52.06
36304;BME280;22335;49.800;8.596;2024-03-23T13:47:36;100064.66;;;12.57;51.62
36304;BME280;22335;49.800;8.596;2024-03-23T13:54:18;100048.03;;;12.90;51.66
36304;BME280;22335;49.800;8.596;2024-03-23T14:01:01;100045.28;;;13.12;50.54
36304;BME280;22335;49.800;8.596;2024-03-23T14:07:45;100038.94;;;13.03;49.86
36304;BME280;22335;49.800;8.596;2024-03-23T14:14:28;100015.16;;;12.99;50.24
36304;BME280;22335;49.800;8.596;2024-03-23T14:21:10;100018.78;;;13.08;50.33
36304;BME280;22335;49.800;8.596;2024-03-23T14:27:54;100004.25;;;13.30;49.43
36304;BME280;22335;49.800;8.596;2024-03-23T14:34:38;99992.66;;;13.33;49.12
36304;BME280;22335;49.800;8.596;2024-03-23T14:41:21;99994.25;;;13.11;48.22
36304;BME280;22335;49.800;8.596;2024-03-23T14:48:05;99999.16;;;12.78;47.39
36304;BME280;22335;49.800;8.596;2024-03-23T14:54:49;99975.41;;;12.51;47.66
36304;BME280;22335;49.800;8.596;2024-03-23T15:01:31;99974.56;;;12.51;47.61
36304;BME280;22335;49.800;8.596;2024-03-23T15:08:15;99980.38;;;12.49;47.03
36304;BME280;22335;49.800;8.596;2024-03-23T15:14:58;99979.38;;;12.45;47.47
36304;BME280;22335;49.800;8.596;2024-03-23T15:21:41;99984.13;;;12.53;47.95
36304;BME280;22335;49.800;8.596;2024-03-23T15:28:25;100002.34;;;12.72;48.17
36304;BME280;22335;49.800;8.596;2024-03-23T15:35:18;99990.50;;;12.85;48.40
36304;BME280;22335;49.800;8.596;2024-03-23T15:42:03;99993.94;;;12.90;48.04
36304;BME280;22335;49.800;8.596;2024-03-23T15:48:48;99966.50;;;12.68;48.72
36304;BME280;22335;49.800;8.596;2024-03-23T15:55:31;99985.69;;;12.68;47.82
36304;BME280;22335;49.800;8.596;2024-03-23T16:02:16;99974.03;;;12.62;47.67
36304;BME280;22335;49.800;8.596;2024-03-23T16:09:00;99962.69;;;12.55;47.41
36304;BME280;22335;49.800;8.596;2024-03-23T16:15:43;99970.63;;;12.43;47.34
36304;BME280;22335;49.800;8.596;2024-03-23T16:22:25;99952.00;;;12.54;47.39
36304;BME280;22335;49.800;8.596;2024-03-23T16:29:09;99956.13;;;12.65;47.91
36304;BME280;22335;49.800;8.596;2024-03-23T16:35:56;99915.28;;;12.63;47.55
36304;BME280;22335;49.800;8.596;2024-03-23T16:42:39;99944.41;;;12.96;47.80
36304;BME280;22335;49.800;8.596;2024-03-23T16:49:25;99950.09;;;12.99;47.98
36304;BME280;22335;49.800;8.596;2024-03-23T16:56:09;99950.59;;;13.01;48.40
36304;BME280;22335;49.800;8.596;2024-03-23T17:02:52;99946.72;;;12.80;48.97
36304;BME280;22335;49.800;8.596;2024-03-23T17:09:46;99950.91;;;12.55;49.28
36304;BME280;22335;49.800;8.596;2024-03-23T17:16:29;99942.84;;;12.22;49.82
36304;BME280;22335;49.800;8.596;2024-03-23T17:23:12;99929.81;;;11.50;50.65
36304;BME280;22335;49.800;8.596;2024-03-23T17:29:56;99943.75;;;11.21;51.50
36304;BME280;22335;49.800;8.596;2024-03-23T17:36:38;99935.88;;;10.87;52.00
36304;BME280;22335;49.800;8.596;2024-03-23T17:43:21;99940.88;;;10.66;52.35
36304;BME280;22335;49.800;8.596;2024-03-23T17:50:06;99934.56;;;10.65;52.66
36304;BME280;22335;49.800;8.596;2024-03-23T17:56:49;99930.31;;;10.92;51.95
36304;BME280;22335;49.800;8.596;2024-03-23T18:03:32;99947.41;;;11.16;51.17
36304;BME280;22335;49.800;8.596;2024-03-23T18:10:16;99950.34;;;11.20;50.92
36304;BME280;22335;49.800;8.596;2024-03-23T18:16:58;99954.63;;;11.26;50.62
36304;BME280;22335;49.800;8.596;2024-03-23T18:23:41;99927.22;;;11.12;50.83
36304;BME280;22335;49.800;8.596;2024-03-23T18:30:25;99957.19;;;11.50;50.07
36304;BME280;22335;49.800;8.596;2024-03-23T18:37:07;99954.66;;;11.53;50.05
36304;BME280;22335;49.800;8.596;2024-03-23T18:43:50;99979.59;;;11.52;50.18
36304;BME280;22335;49.800;8.596;2024-03-23T18:50:35;99983.13;;;11.39;50.17
36304;BME280;22335;49.800;8.596;2024-03-23T18:57:18;99959.69;;;11.19;50.30
36304;BME280;22335;49.800;8.596;2024-03-23T19:04:01;99967.31;;;10.70;50.77
36304;BME280;22335;49.800;8.596;2024-03-23T19:10:52;99977.06;;;10.20;51.51
36304;BME280;22335;49.800;8.596;2024-03-23T19:17:35;99999.50;;;10.16;51.64
36304;BME280;22335;49.800;8.596;2024-03-23T19:24:19;100007.97;;;10.15;51.55
36304;BME280;22335;49.800;8.596;2024-03-23T19:31:03;99975.25;;;9.91;52.16
36304;BME280;22335;49.800;8.596;2024-03-23T19:37:48;99998.91;;;10.20;52.32
36304;BME280;22335;49.800;8.596;2024-03-23T19:44:31;100003.09;;;10.36;52.01
36304;BME280;22335;49.800;8.596;2024-03-23T19:51:16;100011.63;;;10.53;52.09
36304;BME280;22335;49.800;8.596;2024-03-23T19:57:58;100010.81;;;10.72;51.91
36304;BME280;22335;49.800;8.596;2024-03-23T20:04:41;100018.09;;;10.76;52.04
36304;BME280;22335;49.800;8.596;2024-03-23T20:11:25;99987.28;;;10.71;52.17
36304;BME280;22335;49.800;8.596;2024-03-23T20:18:08;100006.13;;;10.91;51.90
36304;BME280;22335;49.800;8.596;2024-03-23T20:24:50;99995.41;;;10.76;52.11
36304;BME280;22335;49.800;8.596;2024-03-23T20:31:35;99976.06;;;10.53;52.44
36304;BME280;22335;49.800;8.596;2024-03-23T20:38:18;99968.75;;;10.25;52.87
36304;BME280;22335;49.800;8.596;2024-03-23T20:45:02;99965.69;;;9.88;53.08
36304;BME280;22335;49.800;8.596;2024-03-23T20:51:46;99967.06;;;9.67;53.30
36304;BME280;22335;49.800;8.596;2024-03-23T20:58:30;99969.00;;;9.61;53.61
36304;BME280;22335;49.800;8.596;2024-03-23T21:05:13;99968.59;;;9.49;53.24
36304;BME280;22335;49.800;8.596;2024-03-23T21:11:57;99973.44;;;9.28;53.90
36304;BME280;22335;49.800;8.596;2024-03-23T21:18:40;99974.16;;;9.10;54.35
36304;BME280;22335;49.800;8.596;2024-03-23T21:25:22;99957.53;;;8.77;55.42
36304;BME280;22335;49.800;8.596;2024-03-23T21:32:07;99962.47;;;8.75;55.55
36304;BME280;22335;49.800;8.596;2024-03-23T21:38:49;99960.31;;;8.72;55.76
36304;BME280;22335;49.800;8.596;2024-03-23T21:45:32;99960.91;;;8.64;55.49
36304;BME280;22335;49.800;8.596;2024-03-23T21:52:16;99952.72;;;8.64;55.60
36304;BME280;22335;49.800;8.596;2024-03-23T21:58:59;99943.56;;;8.49;56.26
36304;BME280;22335;49.800;8.596;2024-03-23T22:05:41;99928.91;;;8.40;56.77
36304;BME280;22335;49.800;8.596;2024-03-23T22:12:25;99919.66;;;8.36;56.75
36304;BME280;22335;49.800;8.596;2024-03-23T22:19:08;99915.91;;;8.27;56.71
36304;BME280;22335;49.800;8.596;2024-03-23T22:25:50;99899.09;;;8.15;57.54
36304;BME280;22335;49.800;8.596;2024-03-23T22:32:35;99895.84;;;8.07;58.14
36304;BME280;22335;49.800;8.596;2024-03-23T22:39:17;99886.31;;;8.05;57.98
36304;BME280;22335;49.800;8.596;2024-03-23T22:46:01;99888.50;;;8.08;58.59
36304;BME280;22335;49.800;8.596;2024-03-23T22:52:46;99880.59;;;8.12;58.44
36304;BME280;22335;49.800;8.596;2024-03-23T22:59:29;99879.72;;;8.16;59.20
36304;BME280;22335;49.800;8.596;2024-03-23T23:06:13;99877.50;;;8.23;59.34
36304;BME280;22335;49.800;8.596;2024-03-23T23:12:57;99859.84;;;8.21;59.64
36304;BME280;22335;49.800;8.596;2024-03-23T23:19:39;99834.31;;;8.06;60.01
36304;BME280;22335;49.800;8.596;2024-03-23T23:26:22;99830.47;;;8.13;60.25
36304;BME280;22335;49.800;8.596;2024-03-23T23:33:06;99837.00;;;8.12;60.09
36304;BME280;22335;49.800;8.596;2024-03-23T23:39:49;99832.66;;;8.11;60.30
36304;BME280;22335;49.800;8.596;2024-03-23T23:46:31;99830.44;;;8.18;60.66
36304;BME280;22335;49.800;8.596;2024-03-23T23:53:15;99827.16;;;8.16;60.94
36304;BME280;22335;49.800;8.596;2024-03-23T23:59:58;99825.81;;;8.13;60.99
